Aeroporto :
LOGIN :

Iscrizione | Disclaimer

   EN    FR    IT 

 










Sommario :    VFR   VFR Marginale   IFR   IFR Intensivo   IFR Molto Intensivo
Visibilità : 
Base nubi : 
>= 8 km
>= 3000ft
5 / 8 km
1000 / 3000 ft
1500m / 5 km
500 / 1000 ft
800 / 1500m
200 / 500 ft
< 800m
< 200 ft
Simboli :   Temporali  Nebbia  Neve Forte  Precipitazioni Forti  Vento > 20 kt
SIGMETs :   Varie  Temporali  Ghiacco  Turbolenza  Onda orograficha  Ceneri Vulcaniche







- Altitudine del aeroporto : 1906 ft
- Codice IATA : INN


LOWI - Innsbruck

ULTIMO METAR :
  • 221550Z 16004KT 120V180 CAVOK 11/02 Q1026 NOSIG

METARs OBSOLETI :
  • 221520Z VRB02KT CAVOK 13/02 Q1025 NOSIG
  • 221450Z 10005KT CAVOK 14/02 Q1025 NOSIG
  • 221420Z 13005KT 100V160 CAVOK 14/02 Q1025 NOSIG
  • 221350Z 09005KT 060V150 CAVOK 14/01 Q1024 NOSIG

TAF TAF LOWI
Valido dal 22 a 12 ore il 23 a 12 ore UTC


221115Z 2212/2312 08007KT CAVOK TX15/2214Z TN04/2305Z
BECMG 2216/2218 VRB02KT 9999 SCT090
TEMPO 2220/2303 BKN090
BECMG 2306/2308 27006KT FEW060 BKN300
Nessun NOTAM noto per questo aeroporto.



MetMap, La meteo Aeronautica in un colpo d'occhio ! - Copyright ORBIFLY Dicembre 2007 - Disclaimer

ORBIFLY MET'MAP TEAM :

Programmazione e sviluppo : Alexandra Zaïnal
Concezione e sviluppo : Baudouin d'Aumeries
Co-Programmazione e sviluppo : Marc-Olivier Méhu
Supporto tecnico e logistico : Manuel Goepfert
Aiuto per la traduzione : Arnaldo La Scala

Contatto : metmap@orbifly.com




FONTI E CREDITI :

   NOAA